Harpersfield, New York
Current Conditions -  °F | °C
As of 4:15 PM on Saturday 22 Nov 2014 (Local Time) from KNY0 Reporting Station
Overcast Overcast  
Wind Chill: 29°   Ceiling: 3400
Heat Index: 29°   Visibility: 7mi
Dew Point: 23°   Wind: 3mph
Humidity: 80%   Direction: 50°NE
Pressure: 30.08"   Gusts: NA
Location:  42.44°N, 74.69°W
Report Text: KNY0 222115Z AUTO 05003KT 7SM OVC034 M02/M05 A3008 RMK AO2 T10181049
Loading
Personal Weather Stations






























Interactive Weather Map New forecast layout! Learn more

10-Day Weather Forecast

Advertisements
Track Severe Weather on mobile